Time;durP1;ratioP1;P1;durP2;ratioP2;P2;SDS_P1;SDS_P2;PMS_P1;PMS_P2;Temp;Humidity;BMP_temperature;BMP_pressure;BME280_temperature;BME280_humidity;BME280_pressure;Samples;Min_cycle;Max_cycle;Signal;HPM_P1;HPM_P2
2023/06/03 00:01:59;;;;;;;11.57;4.72;;;15.30;70.90;;;;;;6272302;28;20431;-76
2023/06/03 00:05:03;;;;;;;8.98;4.78;;;15.30;71.10;;;;;;6271802;28;20048;-76
2023/06/03 00:08:05;;;;;;;7.10;4.78;;;15.20;71.20;;;;;;6270889;28;20091;-76
2023/06/03 00:11:06;;;;;;;14.20;4.47;;;15.20;71.40;;;;;;6271791;28;20052;-76
2023/06/03 00:14:11;;;;;;;10.25;5.20;;;15.20;71.50;;;;;;6271929;28;20060;-77
2023/06/03 00:17:12;;;;;;;7.28;4.05;;;15.20;71.60;;;;;;6271641;28;20388;-76
2023/06/03 00:20:16;;;;;;;12.43;4.45;;;15.20;71.70;;;;;;6271242;28;20047;-76
2023/06/03 00:23:18;;;;;;;9.50;4.70;;;15.10;71.80;;;;;;6271622;28;20049;-76
2023/06/03 00:26:20;;;;;;;6.43;4.60;;;15.10;72.00;;;;;;6270947;28;20403;-76
2023/06/03 00:29:24;;;;;;;9.60;4.45;;;15.10;72.20;;;;;;6271705;28;20048;-76
2023/06/03 00:32:25;;;;;;;8.63;5.15;;;15.00;72.30;;;;;;6271323;28;20407;-76
2023/06/03 00:35:27;;;;;;;14.27;4.72;;;15.00;72.40;;;;;;6271328;28;20048;-76
2023/06/03 00:38:28;;;;;;;10.07;4.70;;;15.00;72.50;;;;;;6267682;28;20044;-76
2023/06/03 00:41:30;;;;;;;9.27;3.80;;;15.00;73.30;;;;;;6271184;28;20060;-76
2023/06/03 00:44:33;;;;;;;7.07;3.95;;;14.90;72.80;;;;;;6270805;28;20041;-77
2023/06/03 00:47:35;;;;;;;7.38;4.90;;;14.90;73.00;;;;;;6270806;28;20045;-77
2023/06/03 00:50:39;;;;;;;10.30;3.63;;;14.90;73.20;;;;;;6270743;28;20045;-77
2023/06/03 00:53:40;;;;;;;11.75;4.28;;;14.90;73.30;;;;;;6271235;28;20049;-76
2023/06/03 00:56:44;;;;;;;10.00;4.78;;;14.80;73.40;;;;;;6270308;28;20041;-77
2023/06/03 00:59:47;;;;;;;12.40;4.15;;;14.80;73.50;;;;;;6245087;28;20404;-77
2023/06/03 01:02:49;;;;;;;9.68;4.85;;;14.80;73.80;;;;;;6245882;28;20052;-76
2023/06/03 01:06:01;;;;;;;10.65;4.22;;;14.80;73.80;;;;;;6246093;28;20049;-76
2023/06/03 01:09:09;;;;;;;5.25;4.32;;;14.80;74.00;;;;;;6245423;28;20050;-77
2023/06/03 01:12:18;;;;;;;8.67;3.87;;;14.80;74.10;;;;;;6245664;28;20136;-77
2023/06/03 01:15:25;;;;;;;7.85;4.10;;;14.80;74.20;;;;;;6245025;28;20045;-77
2023/06/03 01:18:27;;;;;;;11.55;4.05;;;14.70;74.20;;;;;;6252932;28;20049;-76
2023/06/03 01:21:34;;;;;;;6.55;3.92;;;14.70;74.50;;;;;;6270448;28;20052;-77
2023/06/03 01:24:37;;;;;;;5.13;4.00;;;14.60;74.70;;;;;;6269681;28;20083;-77
2023/06/03 01:27:40;;;;;;;13.23;4.60;;;14.60;74.90;;;;;;6269785;28;20557;-76
2023/06/03 01:30:42;;;;;;;11.15;4.70;;;14.50;75.00;;;;;;6269796;28;20045;-76
2023/06/03 01:33:44;;;;;;;8.50;4.82;;;14.50;75.30;;;;;;6269591;28;20053;-77
2023/06/03 01:36:45;;;;;;;13.32;4.15;;;14.40;75.40;;;;;;6269766;28;20079;-76
2023/06/03 01:39:50;;;;;;;11.32;5.20;;;14.40;75.70;;;;;;6269033;28;20072;-77
2023/06/03 01:42:51;;;;;;;10.02;4.85;;;14.40;76.00;;;;;;6269760;28;20052;-76
2023/06/03 01:45:53;;;;;;;7.85;5.13;;;14.30;76.20;;;;;;6270152;28;20045;-77
2023/06/03 01:48:55;;;;;;;11.32;4.57;;;14.20;76.50;;;;;;6268652;28;20086;-77
2023/06/03 01:51:57;;;;;;;16.98;7.38;;;14.10;76.70;;;;;;6269287;28;20049;-77
2023/06/03 01:55:00;;;;;;;8.13;3.92;;;14.10;77.10;;;;;;6269576;28;20056;-77
2023/06/03 01:58:02;;;;;;;8.40;4.70;;;14.00;77.40;;;;;;6269745;28;20075;-76
2023/06/03 02:01:03;;;;;;;12.20;4.18;;;14.00;77.70;;;;;;6269345;28;20076;-76
2023/06/03 02:04:05;;;;;;;11.07;4.70;;;13.90;78.10;;;;;;6269273;28;20416;-76
2023/06/03 02:07:08;;;;;;;7.30;4.28;;;13.90;78.40;;;;;;6269360;28;20049;-76
2023/06/03 02:10:11;;;;;;;11.82;4.03;;;13.80;78.60;;;;;;6268798;28;20045;-76
2023/06/03 02:13:13;;;;;;;10.68;4.53;;;13.80;78.90;;;;;;6269385;28;20529;-76
2023/06/03 02:16:14;;;;;;;8.45;5.00;;;13.80;79.20;;;;;;6269270;28;20049;-76
2023/06/03 02:19:18;;;;;;;7.30;3.83;;;13.70;79.40;;;;;;6268830;28;20103;-75
2023/06/03 02:22:20;;;;;;;6.50;4.80;;;13.70;79.70;;;;;;6269420;28;20139;-75
2023/06/03 02:25:24;;;;;;;9.65;4.95;;;13.70;79.80;;;;;;6269425;28;20538;-75
2023/06/03 02:28:26;;;;;;;9.05;4.85;;;13.60;79.90;;;;;;6268353;28;20049;-75
2023/06/03 02:31:28;;;;;;;13.85;5.20;;;13.60;80.20;;;;;;6274043;28;20056;-75
2023/06/03 02:34:29;;;;;;;9.85;4.00;;;13.50;80.30;;;;;;6274335;28;20049;-75
2023/06/03 02:37:31;;;;;;;13.43;5.32;;;13.50;80.60;;;;;;6273637;28;20057;-76
2023/06/03 02:40:34;;;;;;;8.15;4.32;;;13.40;80.80;;;;;;6273902;28;20458;-75
2023/06/03 02:43:36;;;;;;;9.52;4.80;;;13.40;81.10;;;;;;6274018;28;20045;-75
2023/06/03 02:46:38;;;;;;;12.48;4.80;;;13.30;81.50;;;;;;6273304;28;20099;-75
2023/06/03 02:49:39;;;;;;;13.20;7.10;;;13.40;81.70;;;;;;6273661;28;20052;-76
2023/06/03 02:52:41;;;;;;;7.03;3.88;;;13.30;81.80;;;;;;6273545;28;20127;-76
2023/06/03 02:55:45;;;;;;;7.68;4.55;;;13.20;82.20;;;;;;6273729;28;20056;-76
2023/06/03 02:58:47;;;;;;;7.60;4.05;;;13.20;82.70;;;;;;6273286;28;20064;-75
2023/06/03 03:01:49;;;;;;;6.43;4.22;;;13.10;83.10;;;;;;6274091;28;20048;-75
2023/06/03 03:04:51;;;;;;;9.57;4.53;;;13.00;83.40;;;;;;6273331;28;20045;-75
2023/06/03 03:07:52;;;;;;;4.95;4.15;;;13.00;83.80;;;;;;6272460;28;20045;-75
2023/06/03 03:10:55;;;;;;;9.60;4.55;;;13.00;84.30;;;;;;6272893;28;20048;-75
2023/06/03 03:13:58;;;;;;;7.80;3.97;;;13.00;84.60;;;;;;6273499;28;20060;-75
2023/06/03 03:16:59;;;;;;;11.88;5.20;;;12.90;84.90;;;;;;6273002;28;20166;-75
2023/06/03 03:20:01;;;;;;;14.15;4.30;;;12.90;85.40;;;;;;6272614;28;20068;-75
2023/06/03 03:23:03;;;;;;;8.00;4.40;;;12.90;85.60;;;;;;6272869;28;20052;-77
2023/06/03 03:26:08;;;;;;;7.80;4.45;;;12.90;85.80;;;;;;6272601;28;20665;-76
2023/06/03 03:29:10;;;;;;;9.77;4.30;;;12.80;86.20;;;;;;6272164;28;20052;-76
2023/06/03 03:32:12;;;;;;;11.30;4.80;;;12.80;86.50;;;;;;6272724;28;20060;-78
2023/06/03 03:35:15;;;;;;;8.73;4.53;;;12.80;86.90;;;;;;6272410;28;20056;-76
2023/06/03 03:38:18;;;;;;;7.50;3.90;;;12.80;87.20;;;;;;6272447;28;20060;-76
2023/06/03 03:41:21;;;;;;;17.35;8.07;;;12.80;87.70;;;;;;6272192;28;20044;-76
2023/06/03 03:44:23;;;;;;;7.78;4.57;;;12.80;87.90;;;;;;6272441;28;20179;-76
2023/06/03 03:47:25;;;;;;;9.48;4.65;;;12.80;88.20;;;;;;6272234;28;20045;-76
2023/06/03 03:50:40;;;;;;;8.10;4.93;;;12.80;88.50;;;;;;6271917;28;20071;-77
2023/06/03 03:53:44;;;;;;;8.23;4.38;;;12.80;89.10;;;;;;6272822;28;20512;-76
2023/06/03 03:56:47;;;;;;;9.60;4.20;;;12.90;89.30;;;;;;6272195;28;20415;-77
2023/06/03 03:59:49;;;;;;;10.38;4.43;;;13.00;89.20;;;;;;6271991;28;20052;-77
2023/06/03 04:02:51;;;;;;;19.52;7.38;;;13.10;89.00;;;;;;6271620;28;20052;-76
2023/06/03 04:05:54;;;;;;;11.45;6.53;;;13.10;89.10;;;;;;6272648;28;20061;-76
2023/06/03 04:08:56;;;;;;;10.70;4.60;;;13.10;89.30;;;;;;6271667;28;20057;-76
2023/06/03 04:12:01;;;;;;;14.00;4.80;;;13.10;89.50;;;;;;6272085;28;20045;-76
2023/06/03 04:15:04;;;;;;;8.35;4.25;;;13.20;90.00;;;;;;6271984;28;20045;-76
2023/06/03 04:18:06;;;;;;;8.50;4.85;;;13.30;90.30;;;;;;6271844;28;20059;-75
2023/06/03 04:21:14;;;;;;;10.35;4.00;;;13.50;90.70;;;;;;6271239;28;20499;-76
2023/06/03 04:24:17;;;;;;;7.55;3.92;;;14.10;90.50;;;;;;6271814;28;20073;-76
2023/06/03 04:27:20;;;;;;;20.27;5.07;;;14.70;89.80;;;;;;6271657;28;20056;-74
2023/06/03 04:30:21;;;;;;;7.13;4.20;;;15.20;87.20;;;;;;6271410;28;20045;-76
2023/06/03 04:33:23;;;;;;;9.80;4.85;;;15.40;85.50;;;;;;6271912;28;20131;-76
2023/06/03 04:36:25;;;;;;;11.93;4.90;;;15.50;85.70;;;;;;6271472;28;20063;-76
2023/06/03 04:39:27;;;;;;;7.70;4.35;;;15.80;85.30;;;;;;6270491;28;20053;-75
2023/06/03 04:42:33;;;;;;;6.85;4.15;;;16.20;83.80;;;;;;6271198;28;20045;-75
2023/06/03 04:45:34;;;;;;;6.15;3.08;;;16.60;81.50;;;;;;6271616;28;20534;-76
2023/06/03 04:48:36;;;;;;;10.63;3.78;;;16.90;80.00;;;;;;6270523;28;20717;-75
2023/06/03 04:51:40;;;;;;;12.93;3.75;;;17.20;78.80;;;;;;6270130;28;20041;-76
2023/06/03 04:54:43;;;;;;;15.18;3.67;;;17.50;77.70;;;;;;6270789;28;20102;-76
2023/06/03 04:57:50;;;;;;;8.98;3.97;;;18.10;76.00;;;;;;6270531;28;20115;-76
2023/06/03 05:00:52;;;;;;;8.35;4.03;;;18.50;73.50;;;;;;6270866;28;20045;-76
2023/06/03 05:03:55;;;;;;;13.40;3.92;;;18.70;72.50;;;;;;6270963;28;20049;-76
2023/06/03 05:06:57;;;;;;;9.25;3.70;;;19.00;71.50;;;;;;6270662;28;20045;-77
2023/06/03 05:09:59;;;;;;;13.65;3.72;;;19.40;70.70;;;;;;6270620;28;20506;-77
2023/06/03 05:13:02;;;;;;;7.32;3.67;;;19.70;68.30;;;;;;6270593;28;20045;-77
2023/06/03 05:16:04;;;;;;;7.05;3.45;;;19.70;68.00;;;;;;6270062;28;20045;-77
2023/06/03 05:19:06;;;;;;;8.23;3.83;;;20.00;67.80;;;;;;6269880;28;20056;-77
2023/06/03 05:22:08;;;;;;;12.48;3.38;;;20.30;66.40;;;;;;6270616;28;20496;-77
2023/06/03 05:25:10;;;;;;;7.35;4.00;;;20.60;66.00;;;;;;6270539;28;20047;-76
2023/06/03 05:28:13;;;;;;;13.07;4.22;;;20.80;64.80;;;;;;6269742;28;20458;-77
2023/06/03 05:31:15;;;;;;;12.20;3.45;;;21.10;64.20;;;;;;6269834;28;20068;-77
2023/06/03 05:34:16;;;;;;;10.60;3.78;;;21.10;63.00;;;;;;6269357;28;20049;-76
2023/06/03 05:37:18;;;;;;;8.40;3.75;;;21.00;62.90;;;;;;6270110;28;20065;-77
2023/06/03 05:40:20;;;;;;;6.75;3.65;;;21.00;62.90;;;;;;6269739;28;20052;-77
2023/06/03 05:43:24;;;;;;;6.72;3.40;;;21.20;62.90;;;;;;6269966;28;20048;-77
2023/06/03 05:46:25;;;;;;;12.50;4.20;;;21.60;61.50;;;;;;6270036;28;20048;-76
2023/06/03 05:49:27;;;;;;;11.05;4.22;;;21.70;61.00;;;;;;6269891;28;20045;-76
2023/06/03 05:52:29;;;;;;;5.72;4.22;;;21.90;60.50;;;;;;6269347;28;20045;-77
2023/06/03 05:55:31;;;;;;;8.90;3.70;;;22.30;59.60;;;;;;6269649;28;20072;-76
2023/06/03 05:58:34;;;;;;;11.85;4.43;;;22.70;60.10;;;;;;6269771;28;20049;-77
2023/06/03 06:01:36;;;;;;;8.57;3.67;;;23.20;58.00;;;;;;6270318;28;20084;-76
2023/06/03 06:04:38;;;;;;;6.95;3.40;;;23.30;57.20;;;;;;6269333;28;20419;-76
2023/06/03 06:07:39;;;;;;;9.00;3.88;;;23.20;57.20;;;;;;6269001;28;20041;-76
2023/06/03 06:10:41;;;;;;;12.70;4.93;;;23.40;57.10;;;;;;6269141;28;20041;-76
2023/06/03 06:13:44;;;;;;;11.15;3.83;;;23.70;56.40;;;;;;6242710;28;20045;-77
2023/06/03 06:16:46;;;;;;;7.57;3.28;;;24.00;55.60;;;;;;6262848;28;20060;-76
2023/06/03 06:19:47;;;;;;;5.60;3.35;;;23.90;54.70;;;;;;6262910;28;20140;-76
2023/06/03 06:22:49;;;;;;;14.75;3.80;;;23.50;55.30;;;;;;6265033;28;20045;-76
2023/06/03 06:25:52;;;;;;;5.53;3.80;;;23.40;55.70;;;;;;6265464;28;20045;-76
2023/06/03 06:28:55;;;;;;;7.90;3.08;;;23.40;55.10;;;;;;6250226;28;20799;-76
2023/06/03 06:31:57;;;;;;;10.65;3.70;;;23.40;55.80;;;;;;6262237;28;20058;-77
2023/06/03 06:35:01;;;;;;;12.55;3.90;;;23.60;55.60;;;;;;6232374;28;20048;-76
2023/06/03 06:38:03;;;;;;;9.57;4.50;;;24.00;55.30;;;;;;6258630;28;20488;-77
2023/06/03 06:41:05;;;;;;;7.63;4.15;;;24.50;54.20;;;;;;6257042;28;20037;-76
2023/06/03 06:44:08;;;;;;;7.47;3.13;;;24.60;53.80;;;;;;6259133;28;20779;-77
2023/06/03 06:47:11;;;;;;;11.70;3.85;;;25.00;53.40;;;;;;6261236;28;20044;-77
2023/06/03 06:50:29;;;;;;;6.55;5.10;;;24.80;52.30;;;;;;6261515;28;20448;-77
2023/06/03 06:53:34;;;;;;;12.75;3.88;;;23.60;53.20;;;;;;6259630;28;20069;-77
2023/06/03 06:56:36;;;;;;;9.18;4.25;;;22.20;55.20;;;;;;6261000;28;20442;-76
2023/06/03 06:59:39;;;;;;;11.70;5.30;;;21.30;57.50;;;;;;6260105;28;20183;-77
2023/06/03 07:02:40;;;;;;;11.57;5.07;;;20.80;58.80;;;;;;6259846;28;20048;-76
2023/06/03 07:05:42;;;;;;;10.30;4.47;;;20.20;59.90;;;;;;6261843;28;20057;-77
2023/06/03 07:08:44;;;;;;;9.27;4.30;;;19.90;61.00;;;;;;6258243;28;20049;-76
2023/06/03 07:11:47;;;;;;;8.00;5.10;;;19.80;61.80;;;;;;6256658;28;20415;-75
2023/06/03 07:14:50;;;;;;;9.00;3.75;;;19.60;62.40;;;;;;6261393;28;20187;-76
2023/06/03 07:17:53;;;;;;;10.90;4.22;;;19.40;63.20;;;;;;6264518;28;20420;-77
2023/06/03 07:20:55;;;;;;;9.25;4.82;;;19.50;63.20;;;;;;6266551;28;20063;-76
2023/06/03 07:23:56;;;;;;;11.35;4.35;;;19.50;63.70;;;;;;6259890;28;20052;-77
2023/06/03 07:27:00;;;;;;;9.10;4.15;;;19.70;63.70;;;;;;6262894;28;20060;-77
2023/06/03 07:30:03;;;;;;;9.40;4.13;;;19.70;63.70;;;;;;6259488;28;20060;-76
2023/06/03 07:33:07;;;;;;;9.15;3.92;;;19.70;64.00;;;;;;6262586;28;20072;-77
2023/06/03 07:36:09;;;;;;;10.93;3.55;;;19.80;64.10;;;;;;6262989;28;20053;-76
2023/06/03 07:39:18;;;;;;;14.23;4.43;;;19.90;64.10;;;;;;6264605;28;20052;-77
2023/06/03 07:42:21;;;;;;;11.38;5.03;;;19.90;64.00;;;;;;6272858;28;20067;-77
2023/06/03 07:45:26;;;;;;;11.45;5.55;;;19.80;64.30;;;;;;6272022;28;20055;-76
2023/06/03 07:48:28;;;;;;;14.35;3.78;;;20.00;64.40;;;;;;6264567;28;20048;-77
2023/06/03 07:51:30;;;;;;;14.20;5.60;;;20.00;64.50;;;;;;6280481;28;20056;-76
2023/06/03 07:54:35;;;;;;;7.82;3.15;;;20.20;64.20;;;;;;6273671;28;20051;-78
2023/06/03 07:57:43;;;;;;;9.00;4.60;;;20.30;64.10;;;;;;6270812;28;20041;-78
2023/06/03 08:00:50;;;;;;;11.75;5.00;;;20.40;64.30;;;;;;6273299;28;20041;-78
2023/06/03 08:03:52;;;;;;;5.35;3.78;;;20.50;64.20;;;;;;6271871;28;20143;-77
2023/06/03 08:06:55;;;;;;;7.22;4.38;;;20.60;63.90;;;;;;6270311;28;20118;-76
2023/06/03 08:09:57;;;;;;;11.70;5.18;;;20.80;63.80;;;;;;6259371;28;20064;-77
2023/06/03 08:12:59;;;;;;;9.23;5.63;;;20.80;63.30;;;;;;6260605;28;20420;-76
2023/06/03 08:16:02;;;;;;;7.57;4.13;;;20.70;63.60;;;;;;6262045;28;20040;-77
2023/06/03 08:19:06;;;;;;;13.32;5.68;;;20.90;63.80;;;;;;6261457;28;20056;-76
2023/06/03 08:22:24;;;;;;;9.82;4.57;;;21.20;63.40;;;;;;6263043;28;20372;-76
2023/06/03 08:25:26;;;;;;;9.02;4.40;;;21.30;62.90;;;;;;6261788;28;20048;-76
2023/06/03 08:28:28;;;;;;;8.40;4.68;;;21.40;62.80;;;;;;6261579;28;20053;-77
2023/06/03 08:31:32;;;;;;;7.22;3.42;;;21.60;62.70;;;;;;6260576;28;20045;-77
2023/06/03 08:34:34;;;;;;;13.25;5.25;;;21.90;62.40;;;;;;6258911;28;20076;-76
2023/06/03 08:37:37;;;;;;;8.32;4.22;;;22.20;62.10;;;;;;6259584;28;20040;-77
2023/06/03 08:40:46;;;;;;;11.88;4.15;;;22.30;62.10;;;;;;6262065;28;20056;-77
2023/06/03 08:43:51;;;;;;;8.88;4.38;;;22.40;61.20;;;;;;6261341;28;20053;-77
2023/06/03 08:47:04;;;;;;;8.45;4.72;;;22.50;61.30;;;;;;6261004;28;20052;-76
2023/06/03 08:50:10;;;;;;;7.90;4.75;;;22.60;60.60;;;;;;6261203;28;20064;-77
2023/06/03 08:53:13;;;;;;;10.10;5.00;;;22.60;60.30;;;;;;6258900;28;20045;-76
2023/06/03 08:56:18;;;;;;;6.65;4.07;;;22.60;60.20;;;;;;6263082;28;20064;-76
2023/06/03 08:59:22;;;;;;;10.63;5.05;;;22.50;60.10;;;;;;6259131;28;20045;-76
2023/06/03 09:02:27;;;;;;;8.02;4.70;;;22.50;60.50;;;;;;6260154;28;20449;-77
2023/06/03 09:05:29;;;;;;;12.02;5.18;;;22.80;60.30;;;;;;6261456;28;20623;-76
2023/06/03 09:08:32;;;;;;;8.52;4.90;;;23.10;59.90;;;;;;6259745;28;20118;-77
2023/06/03 09:11:36;;;;;;;16.70;5.43;;;23.40;59.70;;;;;;6259777;28;20057;-74
2023/06/03 09:14:40;;;;;;;14.30;4.10;;;23.50;59.60;;;;;;6264905;28;20049;-75
2023/06/03 09:17:44;;;;;;;8.75;4.55;;;23.50;58.90;;;;;;6260014;28;20041;-78
2023/06/03 09:20:46;;;;;;;9.85;4.70;;;23.40;58.80;;;;;;6260851;28;20057;-78
2023/06/03 09:23:48;;;;;;;8.32;4.25;;;23.40;58.90;;;;;;6260541;28;20044;-77
2023/06/03 09:26:49;;;;;;;12.55;4.50;;;23.50;58.90;;;;;;6257725;28;20048;-76
2023/06/03 09:29:53;;;;;;;8.00;3.90;;;23.70;58.30;;;;;;6258348;28;20105;-76
2023/06/03 09:32:56;;;;;;;8.50;5.63;;;23.70;58.10;;;;;;6248884;28;20056;-76
2023/06/03 09:36:06;;;;;;;9.45;4.35;;;23.80;58.00;;;;;;6236271;28;20060;-76
2023/06/03 09:39:10;;;;;;;13.40;4.28;;;23.90;58.00;;;;;;6259092;28;20044;-76
2023/06/03 09:42:12;;;;;;;10.82;5.07;;;24.10;57.80;;;;;;6258892;28;20396;-77
2023/06/03 09:45:24;;;;;;;7.07;3.97;;;24.40;57.80;;;;;;6259460;28;20045;-77
2023/06/03 09:48:30;;;;;;;7.70;4.70;;;24.60;56.90;;;;;;6259091;28;20057;-77
2023/06/03 09:51:41;;;;;;;14.50;6.85;;;24.50;56.60;;;;;;6261571;28;20515;-76
2023/06/03 09:54:43;;;;;;;10.63;4.80;;;24.40;57.20;;;;;;6257841;28;20140;-76
2023/06/03 09:58:02;;;;;;;8.02;4.60;;;24.60;57.20;;;;;;6259243;28;20052;-77
2023/06/03 10:01:04;;;;;;;10.20;5.47;;;24.60;56.70;;;;;;6259102;28;20060;-77
2023/06/03 10:04:08;;;;;;;6.70;3.55;;;24.80;56.60;;;;;;6258906;28;20045;-76
2023/06/03 10:07:11;;;;;;;5.97;3.58;;;24.90;56.60;;;;;;6260512;28;20048;-77
2023/06/03 10:10:13;;;;;;;5.95;4.25;;;25.40;55.90;;;;;;6251905;28;20054;-77
2023/06/03 10:13:19;;;;;;;5.93;3.53;;;25.70;55.40;;;;;;6258896;28;20060;-77
2023/06/03 10:16:21;;;;;;;6.60;4.40;;;26.10;55.40;;;;;;6258988;28;20068;-76
2023/06/03 10:19:26;;;;;;;12.90;5.22;;;26.30;54.80;;;;;;6260491;28;20499;-76
2023/06/03 10:22:28;;;;;;;11.75;4.68;;;26.30;54.30;;;;;;6259437;28;20131;-76
2023/06/03 10:25:33;;;;;;;5.38;4.53;;;26.30;54.30;;;;;;6259521;28;20499;-77
2023/06/03 10:28:35;;;;;;;8.40;3.78;;;26.50;53.90;;;;;;6260034;28;20052;-76
2023/06/03 10:31:39;;;;;;;9.90;4.32;;;26.60;53.50;;;;;;6263678;28;20064;-76
2023/06/03 10:34:43;;;;;;;20.88;5.47;;;26.40;53.10;;;;;;6265471;28;20053;-77
2023/06/03 10:37:48;;;;;;;14.77;5.10;;;26.40;53.50;;;;;;6266924;28;20139;-76
2023/06/03 10:40:50;;;;;;;9.27;3.90;;;26.30;53.40;;;;;;6264628;28;20476;-76
2023/06/03 10:43:52;;;;;;;15.23;5.75;;;26.50;53.60;;;;;;6268545;28;20144;-77
2023/06/03 10:46:59;;;;;;;10.55;4.90;;;26.80;53.30;;;;;;6265537;28;20522;-76
2023/06/03 10:50:12;;;;;;;12.00;5.07;;;27.20;52.40;;;;;;6269874;28;20057;-76
2023/06/03 10:53:20;;;;;;;5.93;4.30;;;27.20;52.10;;;;;;6273012;28;20138;-76
2023/06/03 10:56:28;;;;;;;11.32;5.47;;;27.10;52.40;;;;;;6268290;28;20044;-76
2023/06/03 10:59:40;;;;;;;9.48;5.38;;;27.10;52.20;;;;;;6262132;28;20504;-77
2023/06/03 11:03:03;;;;;;;6.47;3.90;;;26.90;52.20;;;;;;6262498;28;20099;-77
2023/06/03 11:06:40;;;;;;;7.55;5.45;;;26.80;52.80;;;;;;6263955;28;20048;-76
2023/06/03 11:09:42;;;;;;;13.75;5.20;;;26.80;52.20;;;;;;6263867;28;20061;-75
2023/06/03 11:12:51;;;;;;;15.85;6.20;;;26.60;52.60;;;;;;6265497;28;20688;-75
2023/06/03 11:15:59;;;;;;;7.93;4.75;;;26.80;53.00;;;;;;6262412;28;20608;-77
2023/06/03 11:19:27;;;;;;;7.13;4.70;;;26.90;52.50;;;;;;6263346;28;20075;-77
2023/06/03 11:22:41;;;;;;;10.10;5.35;;;27.00;52.60;;;;;;6264653;28;20041;-75
2023/06/03 11:25:43;;;;;;;10.25;4.65;;;27.30;51.80;;;;;;6262974;28;22775;-76
2023/06/03 11:28:45;;;;;;;8.18;4.45;;;27.20;52.10;;;;;;6263654;28;20063;-75
2023/06/03 11:31:46;;;;;;;7.00;5.22;;;27.10;52.30;;;;;;6261730;28;20456;-75
2023/06/03 11:34:49;;;;;;;7.38;4.80;;;27.10;52.20;;;;;;6261701;28;20395;-75
2023/06/03 11:37:53;;;;;;;6.32;4.50;;;27.30;51.90;;;;;;6264770;28;20056;-77
2023/06/03 11:40:55;;;;;;;9.23;5.50;;;27.10;51.90;;;;;;6260385;28;20057;-76
2023/06/03 11:44:20;;;;;;;8.13;5.90;;;27.10;52.40;;;;;;6262040;28;20037;-76
2023/06/03 11:47:22;;;;;;;7.35;5.30;;;27.10;52.40;;;;;;6262411;28;20052;-76
2023/06/03 11:50:27;;;;;;;11.80;4.90;;;27.40;52.20;;;;;;6262688;28;20053;-77
2023/06/03 11:53:34;;;;;;;10.82;4.95;;;27.70;51.60;;;;;;6262745;28;20049;-76
2023/06/03 11:56:45;;;;;;;;;;;27.60;51.60;;;;;;6263581;28;20057;-75
2023/06/03 11:59:48;;;;;;;6.50;4.97;;;27.70;51.50;;;;;;6264013;28;19928;-76
2023/06/03 12:02:50;;;;;;;6.45;4.63;;;27.90;51.70;;;;;;6261583;28;20053;-76
2023/06/03 12:05:53;;;;;;;5.95;4.53;;;28.20;51.30;;;;;;6265193;28;20055;-76
2023/06/03 12:08:56;;;;;;;7.90;5.65;;;28.30;51.50;;;;;;6259939;28;20064;-75
2023/06/03 12:11:59;;;;;;;7.85;5.13;;;28.60;50.50;;;;;;6235784;28;20152;-75
2023/06/03 12:15:05;;;;;;;6.65;4.38;;;28.50;50.30;;;;;;6267296;28;20080;-77
2023/06/03 12:18:07;;;;;;;11.57;5.07;;;28.60;50.70;;;;;;6265472;28;20080;-76
2023/06/03 12:21:21;;;;;;;12.48;5.45;;;29.10;50.20;;;;;;6259672;28;20052;-77
2023/06/03 12:24:29;;;;;;;10.27;5.80;;;29.20;49.60;;;;;;6263710;28;20148;-77
2023/06/03 12:27:31;;;;;;;9.25;5.00;;;28.80;49.80;;;;;;6262184;28;20048;-76
2023/06/03 12:30:34;;;;;;;27.70;5.03;;;28.90;50.20;;;;;;6264875;28;20478;-76
2023/06/03 12:33:40;;;;;;;10.25;5.80;;;29.20;50.00;;;;;;6260028;28;20033;-77
2023/06/03 12:36:45;;;;;;;10.27;4.80;;;29.60;49.30;;;;;;6261949;28;20070;-76
2023/06/03 12:39:50;;;;;;;7.47;5.03;;;29.60;49.90;;;;;;6261994;28;20047;-76
2023/06/03 12:42:53;;;;;;;6.70;4.95;;;29.80;49.10;;;;;;6263260;28;20052;-77
2023/06/03 12:45:54;;;;;;;15.82;5.60;;;29.90;48.70;;;;;;6262870;28;20076;-77
2023/06/03 12:48:58;;;;;;;8.70;5.22;;;29.80;48.90;;;;;;6262375;28;20426;-76
2023/06/03 12:52:11;;;;;;;9.48;5.35;;;30.00;48.50;;;;;;6261356;28;20095;-76
2023/06/03 12:55:16;;;;;;;7.25;5.30;;;30.30;48.00;;;;;;6259872;28;20048;-77
2023/06/03 12:58:19;;;;;;;7.13;4.80;;;30.10;47.40;;;;;;6260487;28;20492;-76
2023/06/03 13:01:21;;;;;;;5.07;4.03;;;29.40;48.00;;;;;;6264867;28;20103;-76
2023/06/03 13:04:23;;;;;;;6.80;5.10;;;29.30;48.70;;;;;;6260500;28;20048;-75
2023/06/03 13:07:25;;;;;;;11.55;5.38;;;29.30;48.70;;;;;;6262205;28;20059;-76
2023/06/03 13:10:28;;;;;;;12.52;5.07;;;29.20;48.70;;;;;;6263809;28;20060;-77
2023/06/03 13:13:33;;;;;;;6.72;4.85;;;29.00;49.00;;;;;;6264004;28;20040;-77
2023/06/03 13:16:35;;;;;;;10.55;4.60;;;28.90;49.30;;;;;;6261576;28;20068;-76
2023/06/03 13:19:36;;;;;;;7.70;4.28;;;29.20;49.10;;;;;;6262837;28;20423;-76
2023/06/03 13:22:40;;;;;;;6.07;5.28;;;29.50;48.80;;;;;;6270345;28;20141;-76
2023/06/03 13:25:43;;;;;;;11.45;5.10;;;29.80;49.20;;;;;;6268406;28;20046;-76
2023/06/03 13:28:45;;;;;;;7.90;4.60;;;30.00;47.60;;;;;;6272231;28;20051;-76
2023/06/03 13:31:47;;;;;;;8.35;5.47;;;29.80;47.80;;;;;;6268872;28;20044;-76
2023/06/03 13:34:50;;;;;;;9.18;5.38;;;29.70;47.90;;;;;;6265264;28;20045;-78
2023/06/03 13:37:52;;;;;;;9.13;5.28;;;29.50;47.90;;;;;;6270385;28;20044;-75
2023/06/03 13:40:55;;;;;;;7.95;5.35;;;29.60;48.30;;;;;;6269552;28;20049;-76
2023/06/03 13:43:56;;;;;;;5.22;4.57;;;29.70;47.90;;;;;;6269121;28;20416;-76
2023/06/03 13:47:00;;;;;;;4.95;4.28;;;29.90;47.90;;;;;;6263592;28;20986;-77
2023/06/03 13:50:02;;;;;;;6.97;5.53;;;30.30;47.30;;;;;;6259886;28;20055;-77
2023/06/03 13:53:04;;;;;;;6.80;5.63;;;30.20;47.20;;;;;;6258537;28;20048;-76
2023/06/03 13:56:07;;;;;;;6.60;4.53;;;29.90;47.20;;;;;;6265628;28;20973;-77
2023/06/03 13:59:09;;;;;;;8.25;4.95;;;29.90;47.50;;;;;;6263955;28;20048;-78
2023/06/03 14:02:14;;;;;;;8.38;6.07;;;30.30;47.30;;;;;;6264050;28;20495;-76
2023/06/03 14:05:16;;;;;;;5.95;5.22;;;30.50;46.70;;;;;;6263570;28;21154;-77
2023/06/03 14:08:20;;;;;;;7.90;5.30;;;30.30;46.70;;;;;;6264484;28;20495;-76
2023/06/03 14:11:23;;;;;;;6.60;5.47;;;30.10;47.00;;;;;;6254947;28;20052;-77
2023/06/03 14:14:25;;;;;;;9.38;5.97;;;29.90;46.90;;;;;;6272348;28;20416;-76
2023/06/03 14:17:26;;;;;;;7.97;5.70;;;29.80;47.30;;;;;;6261240;28;20665;-77
2023/06/03 14:20:30;;;;;;;9.07;4.90;;;30.00;47.00;;;;;;6257657;28;20057;-76
2023/06/03 14:23:32;;;;;;;10.25;5.55;;;30.10;47.10;;;;;;6260687;28;20065;-76
2023/06/03 14:26:36;;;;;;;7.05;5.15;;;30.30;47.20;;;;;;6266784;28;20178;-76
2023/06/03 14:29:37;;;;;;;8.82;5.13;;;30.70;46.20;;;;;;6265041;28;20057;-77
2023/06/03 14:32:39;;;;;;;7.50;4.80;;;30.60;46.40;;;;;;6264755;28;20041;-78
2023/06/03 14:35:41;;;;;;;5.97;3.95;;;30.60;46.30;;;;;;6263252;28;20047;-77
2023/06/03 14:38:42;;;;;;;7.30;4.70;;;30.50;46.30;;;;;;6266690;28;20503;-76
2023/06/03 14:41:46;;;;;;;6.93;5.35;;;30.50;46.40;;;;;;6265599;28;20049;-76
2023/06/03 14:44:47;;;;;;;7.85;4.90;;;30.30;45.80;;;;;;6265802;28;20360;-77
2023/06/03 14:47:49;;;;;;;6.40;5.13;;;30.10;46.30;;;;;;6264619;28;20464;-78
2023/06/03 14:50:51;;;;;;;7.10;5.22;;;30.10;46.50;;;;;;6265621;28;20143;-77
2023/06/03 14:53:53;;;;;;;6.10;5.50;;;30.20;46.10;;;;;;6265462;28;20057;-76
2023/06/03 14:56:56;;;;;;;8.02;5.72;;;30.00;45.80;;;;;;6264119;28;20140;-76
2023/06/03 14:59:58;;;;;;;9.45;4.65;;;29.60;45.80;;;;;;6264625;28;20041;-76
2023/06/03 15:03:00;;;;;;;8.93;5.65;;;29.30;46.50;;;;;;6265304;28;20052;-76
2023/06/03 15:06:02;;;;;;;5.57;4.95;;;29.00;46.60;;;;;;6268819;28;20056;-76
2023/06/03 15:09:04;;;;;;;5.80;5.25;;;28.80;46.90;;;;;;6265121;28;20084;-76
2023/06/03 15:12:08;;;;;;;11.85;5.05;;;28.70;47.00;;;;;;6265992;28;20076;-77
2023/06/03 15:15:10;;;;;;;8.35;5.00;;;28.50;47.30;;;;;;6266320;28;20132;-76
2023/06/03 15:18:12;;;;;;;7.32;6.25;;;28.50;47.60;;;;;;6266389;28;20057;-77
2023/06/03 15:21:14;;;;;;;8.75;4.97;;;28.50;47.70;;;;;;6266069;28;20059;-76
2023/06/03 15:24:15;;;;;;;7.15;5.68;;;28.60;47.70;;;;;;6266887;28;20513;-76
2023/06/03 15:27:19;;;;;;;11.75;5.78;;;28.60;47.40;;;;;;6265723;28;20053;-78
2023/06/03 15:30:21;;;;;;;9.13;4.95;;;28.90;47.20;;;;;;6264628;28;20077;-77
2023/06/03 15:33:22;;;;;;;6.30;4.55;;;29.20;46.80;;;;;;6269616;28;20130;-77
2023/06/03 15:36:24;;;;;;;7.13;4.55;;;29.30;46.20;;;;;;6263934;28;20428;-76
2023/06/03 15:39:26;;;;;;;6.55;4.85;;;29.50;45.90;;;;;;6266361;28;20048;-76
2023/06/03 15:42:30;;;;;;;7.30;4.55;;;29.20;45.80;;;;;;6265914;28;20395;-76
2023/06/03 15:45:32;;;;;;;8.50;4.47;;;29.00;46.10;;;;;;6263792;28;20048;-77
2023/06/03 15:48:34;;;;;;;7.13;5.20;;;28.90;46.50;;;;;;6264134;28;20056;-77
2023/06/03 15:51:36;;;;;;;11.35;5.15;;;29.00;46.10;;;;;;6263115;28;20049;-75